FW6210 Weather Reports


time (UTC)temp
F
wind
direction
speed
knots
gust
knots
rain 1hr
in
rain 24hr
in
rain mn
in
humidity
%
barometer
mb
20260906221541 77 148 0.0 4.3 0.00 0.00 0.00 31 1007.5
20260906220039 78 286 0.9 4.3 0.00 0.00 0.00 33 1007.7
20260906214537 79 188 0.9 2.6 0.00 0.00 0.00 29 1007.7
20260906213038 80 12 0.9 5.2 0.00 0.00 0.00 29 1008.0
20260906211536 80 159 0.9 5.2 0.00 0.00 0.00 30 1008.1
20260906210022 79 355 0.0 4.3 0.00 0.00 0.00 32 1008.5
20260906204518 77 223 1.7 4.3 0.00 0.00 0.00 31 1008.6
20260906203017 77 360 0.9 4.3 0.00 0.00 0.00 30 1008.7
20260906201516 76 333 0.0 2.6 0.00 0.00 0.00 31 1009.0
20260906200014 77 92 0.0 7.0 0.00 0.00 0.00 31 1009.0
20260906194512 78 19 0.0 2.6 0.00 0.00 0.00 29 1009.2
20260906193010 79 65 0.9 2.6 0.00 0.00 0.00 30 1009.6
20260906191507 77 11 0.9 2.6 0.00 0.00 0.00 31 1009.9
20260906190003 77 333 0.0 2.6 0.00 0.00 0.00 31 1010.5
20260906184502 76 252 0.9 3.5 0.00 0.00 0.00 32 1010.8
20260906183059 76 107 1.7 7.0 0.00 0.00 0.00 32 1011.0
20260906181558 76 100 0.9 4.3 0.00 0.00 0.00 33 1011.2
20260906180105 76 139 0.9 3.5 0.00 0.00 0.00 34 1011.5
20260906174603 76 67 0.0 2.6 0.00 0.00 0.00 33 1011.7
20260906173051 75 347 0.9 3.5 0.00 0.00 0.00 31 1011.9
20260906171547 75 199 0.0 0.9 0.00 0.00 0.00 33 1012.1
20260906170042 73 234 0.0 1.7 0.00 0.00 0.00 35 1012.3
20260906164539 72 44 0.0 1.7 0.00 0.00 0.00 37 1012.5
20260906163037 71 104 0.0 1.7 0.00 0.00 0.00 37 1012.6
20260906161541 69 169 0.0 2.6 0.00 0.00 0.00 40 1012.5
20260906160023 66 360 0.0 0.9 0.00 0.00 0.00 51 1012.6
20260906154533 62 360 0.0 0.9 0.00 0.00 0.00 56 1012.6
20260906153016 57 360 0.0 1.7 0.00 0.00 0.00 73 1012.7
20260906151509 53 360 0.0 0.9 0.00 0.00 0.00 77 1012.9
20260906150009 50 360 0.0 0.0 0.00 0.00 0.00 82 1013.1
20260906144510 47 360 0.0 0.0 0.00 0.00 0.00 87 1013.1
20260906143002 45 360 0.0 0.0 0.00 0.00 0.00 85 1013.3
20260906141501 43 360 0.0 0.0 0.00 0.00 0.00 85 1013.3
20260906140001 42 360 0.0 0.0 0.00 0.00 0.00 85 1013.3
20260906134604 42 360 0.0 0.0 0.00 0.00 0.00 84 1013.2
20260906133107 42 360 0.0 0.0 0.00 0.00 0.00 85 1013.0
20260906131603 42 360 0.0 0.0 0.00 0.00 0.00 86 1013.1
20260906130100 42 360 0.0 0.0 0.00 0.00 0.00 86 1012.8
20260906124557 42 360 0.0 0.0 0.00 0.00 0.00 85 1013.0
20260906123101 42 360 0.0 0.0 0.00 0.00 0.00 85 1013.0
20260906121555 42 360 0.0 0.0 0.00 0.00 0.00 85 1012.9
20260906120119 42 360 0.0 0.0 0.00 0.00 0.00 86 1012.8
20260906114602 42 360 0.0 0.0 0.00 0.00 0.00 84 1012.8
20260906113051 42 360 0.0 0.9 0.00 0.00 0.00 83 1012.8
20260906111557 42 360 0.0 0.0 0.00 0.00 0.00 82 1013.0
20260906110048 43 360 0.0 0.0 0.00 0.00 0.00 81 1012.9
20260906104547 43 360 0.0 0.0 0.00 0.00 0.00 82 1012.8
20260906103050 43 360 0.0 0.0 0.00 0.00 0.00 81 1012.8
20260906101544 44 360 0.0 0.0 0.00 0.00 0.00 81 1012.8
20260906100055 44 360 0.0 0.0 0.00 0.00 0.00 81 1012.7
20260906094549 44 360 0.0 0.0 0.00 0.00 0.00 81 1012.7
20260906093041 44 360 0.0 0.0 0.00 0.00 0.00 79 1012.6
20260906091539 45 360 0.0 0.0 0.00 0.00 0.00 77 1012.6
20260906090036 45 360 0.0 0.0 0.00 0.00 0.00 78 1012.5
20260906084534 45 360 0.0 0.0 0.00 0.00 0.00 80 1012.4
20260906083033 45 360 0.0 0.0 0.00 0.00 0.00 78 1012.4
20260906081531 46 360 0.0 0.0 0.00 0.00 0.00 78 1012.3
20260906080021 46 360 0.0 0.0 0.00 0.00 0.00 78 1012.3
20260906074520 47 360 0.0 0.0 0.00 0.00 0.00 76 1012.4
20260906073023 46 360 0.0 0.0 0.00 0.00 0.00 78 1012.4
20260906071517 47 360 0.0 0.0 0.00 0.00 0.00 75 1012.4
20260906070022 47 360 0.0 0.0 0.00 0.00 0.00 73 1012.4
20260906064514 47 360 0.0 0.0 0.00 0.00 0.00 73 1012.4
20260906063013 48 360 0.0 0.0 0.00 0.00 0.00 75 1012.3
20260906061511 48 360 0.0 0.0 0.00 0.00 0.00 74 1012.2
20260906060008 49 360 0.0 0.0 0.00 0.00 0.00 72 1012.2
20260906054506 50 360 0.0 0.0 0.00 0.00 0.00 72 1012.0
20260906053007 50 360 0.0 0.0 0.00 0.00 0.00 71 1012.0
20260906051506 51 360 0.0 0.0 0.00 0.00 0.00 71 1011.9
20260906050005 51 360 0.0 0.0 0.00 0.00 0.00 68 1011.9
20260906044505 52 360 0.0 0.0 0.00 0.00 0.00 69 1011.8
20260906043005 53 360 0.0 0.0 0.00 0.00 0.00 68 1011.8
20260906041504 53 360 0.0 0.0 0.00 0.00 0.00 67 1011.8
20260906040003 54 360 0.0 0.0 0.00 0.00 0.00 65 1011.7
20260906034503 55 360 0.0 0.0 0.00 0.00 0.00 66 1011.6
20260906033003 55 360 0.0 0.0 0.00 0.00 0.00 64 1011.5
20260906031508 56 360 0.0 0.0 0.00 0.00 0.00 61 1011.4
20260906030004 57 360 0.0 0.0 0.00 0.00 0.00 61 1011.1
20260906024504 58 360 0.0 0.9 0.00 0.00 0.00 59 1010.7
20260906023103 59 360 0.0 1.7 0.00 0.00 0.00 58 1010.6
20260906021607 60 360 0.0 1.7 0.00 0.00 0.00 56 1010.4
20260906020101 61 360 0.0 0.9 0.00 0.00 0.00 54 1010.2
20260906014559 63 360 0.0 0.9 0.00 0.00 0.00 52 1010.0
20260906013105 65 360 0.0 0.9 0.00 0.00 0.00 53 1009.9
20260906011604 66 360 0.0 0.9 0.00 0.00 0.00 50 1010.0
20260906010057 68 360 0.0 0.9 0.00 0.00 0.00 49 1009.9
20260906004600 69 360 0.0 0.9 0.00 0.00 0.00 44 1009.9
20260906003057 70 44 0.0 0.9 0.00 0.00 0.00 39 1009.8
20260906001556 71 360 0.0 0.9 0.00 0.00 0.00 43 1009.7
20260906000105 72 360 0.0 0.9 0.00 0.00 0.00 41 1009.6
20260905234601 73 360 0.0 0.9 0.00 0.00 0.00 39 1009.6
20260905233056 74 38 0.0 1.7 0.00 0.00 0.00 36 1009.5
20260905231554 74 36 0.0 1.7 0.00 0.00 0.00 35 1009.6
20260905230056 75 146 0.0 3.5 0.00 0.00 0.00 35 1009.5
20260905224553 75 337 0.0 1.7 0.00 0.00 0.00 35 1009.6
20260905223052 75 338 0.0 2.6 0.00 0.00 0.00 34 1009.8